TGL66PC LGMK-LIRN
Flight info
| Callsign | TGL66PC |
|---|---|
| Flight time | 1h 50m |
| Altitude | 36000 |
| Route | VARIX UL995 KEA UL52 KOR UL53 OLGAT DCT TOPNO/N0456F320 L995 EKTOL |
| Aircraft | A320/M-SDE3FGHIRWY/LB1 |
Departure
| Time | 2026-04-22 07:47 |
|---|---|
| Airport | Mykonos Island National Airport (LGMK) |
Arrival
| Time | 2026-04-22 09:38 |
|---|---|
| Airport | Naples International Airport (LIRN) |
| Time | Latitude | Longitude | Altitude | Speed | Heading |
|---|---|---|---|---|---|
| 2026-04-22 07:08 | 37.43561 | 25.34637 | 409 ft | 0 kts | 249° |
| 2026-04-22 07:36 | 37.43564 | 25.34647 | 408 ft | 4 kts | 249° |
| 2026-04-22 07:37 | 37.43572 | 25.34677 | 380 ft | 4 kts | 283° |
| 2026-04-22 07:37 | 37.43569 | 25.34686 | 407 ft | 0 kts | 340° |
| 2026-04-22 07:40 | 37.43578 | 25.34680 | 407 ft | 5 kts | 333° |
| 2026-04-22 07:40 | 37.43626 | 25.34674 | 406 ft | 10 kts | 21° |
| 2026-04-22 07:40 | 37.43714 | 25.34716 | 406 ft | 16 kts | 8° |
| 2026-04-22 07:41 | 37.43828 | 25.34684 | 408 ft | 18 kts | 340° |
| 2026-04-22 07:41 | 37.43950 | 25.34629 | 409 ft | 20 kts | 341° |
| 2026-04-22 07:41 | 37.44101 | 25.34566 | 406 ft | 23 kts | 340° |
| 2026-04-22 07:41 | 37.44190 | 25.34525 | 406 ft | 12 kts | 340° |
| 2026-04-22 07:42 | 37.44264 | 25.34492 | 406 ft | 11 kts | 340° |
| 2026-04-22 07:42 | 37.44330 | 25.34476 | 404 ft | 7 kts | 327° |
| 2026-04-22 07:42 | 37.44315 | 25.34469 | 402 ft | 3 kts | 148° |
| 2026-04-22 07:42 | 37.44306 | 25.34474 | 406 ft | 1 kts | 154° |
| 2026-04-22 07:43 | 37.44305 | 25.34475 | 406 ft | 0 kts | 155° |
| 2026-04-22 07:46 | 37.44297 | 25.34479 | 406 ft | 10 kts | 157° |
| 2026-04-22 07:46 | 37.43966 | 25.34626 | 409 ft | 87 kts | 160° |
| 2026-04-22 07:47 | 37.43211 | 25.34958 | 419 ft | 142 kts | 161° |
| 2026-04-22 07:47 | 37.42242 | 25.35398 | 939 ft | 154 kts | 160° |
| 2026-04-22 07:47 | 37.41190 | 25.35891 | 1600 ft | 165 kts | 159° |
| 2026-04-22 07:47 | 37.40305 | 25.36790 | 2416 ft | 170 kts | 117° |
| 2026-04-22 07:48 | 37.40195 | 25.38298 | 2791 ft | 188 kts | 67° |
| 2026-04-22 07:48 | 37.41098 | 25.39525 | 3072 ft | 206 kts | 19° |
| 2026-04-22 07:48 | 37.42552 | 25.39574 | 3458 ft | 223 kts | 335° |
| 2026-04-22 07:48 | 37.43752 | 25.38290 | 3876 ft | 240 kts | 297° |
| 2026-04-22 07:49 | 37.44354 | 25.36257 | 4418 ft | 254 kts | 282° |
| 2026-04-22 07:49 | 37.44537 | 25.34041 | 5244 ft | 258 kts | 260° |
| 2026-04-22 07:49 | 37.43926 | 25.31942 | 6123 ft | 260 kts | 246° |
| 2026-04-22 07:49 | 37.43200 | 25.29843 | 7021 ft | 262 kts | 248° |
| 2026-04-22 07:50 | 37.42525 | 25.27700 | 7864 ft | 265 kts | 250° |
| 2026-04-22 07:50 | 37.41896 | 25.25511 | 8700 ft | 268 kts | 252° |
| 2026-04-22 07:50 | 37.41301 | 25.23281 | 9547 ft | 270 kts | 253° |
| 2026-04-22 07:50 | 37.40722 | 25.21012 | 10312 ft | 276 kts | 253° |
| 2026-04-22 07:51 | 37.40123 | 25.18609 | 10582 ft | 299 kts | 254° |
| 2026-04-22 07:51 | 37.39484 | 25.16014 | 10785 ft | 322 kts | 254° |
| 2026-04-22 07:51 | 37.38808 | 25.13264 | 11204 ft | 334 kts | 254° |
| 2026-04-22 07:51 | 37.38114 | 25.10453 | 11875 ft | 338 kts | 254° |
| 2026-04-22 07:52 | 37.37414 | 25.07615 | 12609 ft | 340 kts | 255° |
| 2026-04-22 07:52 | 37.36964 | 25.04737 | 13333 ft | 341 kts | 266° |
| 2026-04-22 07:52 | 37.37029 | 25.01762 | 14032 ft | 342 kts | 278° |
| 2026-04-22 07:52 | 37.37601 | 24.98853 | 14649 ft | 345 kts | 288° |
| 2026-04-22 07:53 | 37.38377 | 24.95988 | 15284 ft | 347 kts | 288° |
| 2026-04-22 07:53 | 37.39152 | 24.93093 | 15874 ft | 350 kts | 288° |
| 2026-04-22 07:53 | 37.39925 | 24.90173 | 16476 ft | 353 kts | 288° |
| 2026-04-22 07:53 | 37.40701 | 24.87231 | 17093 ft | 355 kts | 288° |
| 2026-04-22 07:54 | 37.41482 | 24.84268 | 17691 ft | 358 kts | 288° |
| 2026-04-22 07:54 | 37.42256 | 24.81326 | 18264 ft | 360 kts | 288° |
| 2026-04-22 07:54 | 37.43056 | 24.78287 | 18764 ft | 363 kts | 288° |
| 2026-04-22 07:54 | 37.43843 | 24.75306 | 19253 ft | 365 kts | 288° |
| 2026-04-22 07:55 | 37.44646 | 24.72264 | 19737 ft | 367 kts | 288° |
| 2026-04-22 07:55 | 37.45454 | 24.69202 | 20223 ft | 370 kts | 288° |
| 2026-04-22 07:55 | 37.46267 | 24.66114 | 20699 ft | 372 kts | 288° |
| 2026-04-22 07:55 | 37.47080 | 24.63016 | 21168 ft | 374 kts | 288° |
| 2026-04-22 07:56 | 37.47899 | 24.59890 | 21629 ft | 377 kts | 288° |
| 2026-04-22 07:56 | 37.48722 | 24.56745 | 22084 ft | 379 kts | 288° |
| 2026-04-22 07:56 | 37.49548 | 24.53581 | 22534 ft | 382 kts | 288° |
| 2026-04-22 07:56 | 37.50379 | 24.50396 | 22978 ft | 384 kts | 288° |
| 2026-04-22 07:57 | 37.51216 | 24.47193 | 23414 ft | 386 kts | 288° |
| 2026-04-22 07:57 | 37.52058 | 24.43967 | 23803 ft | 389 kts | 288° |
| 2026-04-22 07:57 | 37.52902 | 24.40725 | 24161 ft | 390 kts | 288° |
| 2026-04-22 07:57 | 37.53749 | 24.37464 | 24518 ft | 392 kts | 288° |
| 2026-04-22 07:58 | 37.54599 | 24.34196 | 24897 ft | 393 kts | 288° |
| 2026-04-22 07:58 | 37.55452 | 24.30914 | 25246 ft | 395 kts | 288° |
| 2026-04-22 07:58 | 37.56317 | 24.27621 | 25602 ft | 397 kts | 289° |
| 2026-04-22 07:58 | 37.57223 | 24.24328 | 25972 ft | 398 kts | 289° |
| 2026-04-22 07:59 | 37.58154 | 24.21035 | 26317 ft | 399 kts | 289° |
| 2026-04-22 07:59 | 37.59085 | 24.17776 | 26659 ft | 401 kts | 290° |
| 2026-04-22 07:59 | 37.60032 | 24.14448 | 26991 ft | 403 kts | 289° |
| 2026-04-22 07:59 | 37.60974 | 24.11110 | 27311 ft | 404 kts | 289° |
| 2026-04-22 08:00 | 37.61912 | 24.07763 | 27624 ft | 406 kts | 289° |
| 2026-04-22 08:00 | 37.62850 | 24.04401 | 27947 ft | 407 kts | 289° |
| 2026-04-22 08:00 | 37.63787 | 24.01029 | 28263 ft | 408 kts | 289° |
| 2026-04-22 08:00 | 37.64728 | 23.97649 | 28561 ft | 409 kts | 289° |
| 2026-04-22 08:01 | 37.65673 | 23.94246 | 28858 ft | 411 kts | 289° |
| 2026-04-22 08:01 | 37.66618 | 23.90830 | 29167 ft | 412 kts | 289° |
| 2026-04-22 08:01 | 37.67562 | 23.87415 | 29584 ft | 410 kts | 289° |
| 2026-04-22 08:01 | 37.68498 | 23.84023 | 30011 ft | 409 kts | 289° |
| 2026-04-22 08:02 | 37.69431 | 23.80642 | 30365 ft | 407 kts | 289° |
| 2026-04-22 08:02 | 37.70352 | 23.77306 | 30717 ft | 406 kts | 289° |
| 2026-04-22 08:02 | 37.71280 | 23.73942 | 31068 ft | 404 kts | 289° |
| 2026-04-22 08:02 | 37.72203 | 23.70592 | 31440 ft | 402 kts | 289° |
| 2026-04-22 08:03 | 37.73120 | 23.67259 | 31796 ft | 401 kts | 289° |
| 2026-04-22 08:03 | 37.74031 | 23.63941 | 32146 ft | 400 kts | 289° |
| 2026-04-22 08:03 | 37.74942 | 23.60620 | 32486 ft | 398 kts | 289° |
| 2026-04-22 08:03 | 37.75847 | 23.57310 | 32832 ft | 397 kts | 289° |
| 2026-04-22 08:04 | 37.76747 | 23.54013 | 33182 ft | 396 kts | 289° |
| 2026-04-22 08:04 | 37.77643 | 23.50722 | 33535 ft | 395 kts | 289° |
| 2026-04-22 08:04 | 37.78536 | 23.47435 | 33871 ft | 394 kts | 289° |
| 2026-04-22 08:04 | 37.79424 | 23.44165 | 34161 ft | 393 kts | 289° |
| 2026-04-22 08:05 | 37.80313 | 23.40896 | 34466 ft | 392 kts | 289° |
| 2026-04-22 08:05 | 37.81197 | 23.37647 | 34765 ft | 391 kts | 289° |
| 2026-04-22 08:05 | 37.82081 | 23.34398 | 35016 ft | 391 kts | 289° |
| 2026-04-22 08:05 | 37.82952 | 23.31194 | 35234 ft | 391 kts | 289° |
| 2026-04-22 08:06 | 37.83836 | 23.27941 | 35446 ft | 391 kts | 289° |
| 2026-04-22 08:06 | 37.84722 | 23.24674 | 35656 ft | 392 kts | 289° |
| 2026-04-22 08:06 | 37.85601 | 23.21408 | 35853 ft | 392 kts | 288° |
| 2026-04-22 08:06 | 37.86478 | 23.18138 | 35958 ft | 394 kts | 288° |
| 2026-04-22 08:07 | 37.88245 | 23.11546 | 35975 ft | 395 kts | 288° |
| 2026-04-22 08:07 | 37.90011 | 23.04964 | 35975 ft | 393 kts | 288° |
| 2026-04-22 08:08 | 37.91763 | 22.98412 | 35978 ft | 393 kts | 288° |
| 2026-04-22 08:08 | 37.93895 | 22.92105 | 35978 ft | 394 kts | 301° |
| 2026-04-22 08:09 | 37.97037 | 22.86382 | 35999 ft | 395 kts | 303° |
| 2026-04-22 08:09 | 38.00176 | 22.80667 | 35992 ft | 395 kts | 302° |
| 2026-04-22 08:10 | 38.03310 | 22.74937 | 35988 ft | 395 kts | 302° |
| 2026-04-22 08:10 | 38.06443 | 22.69221 | 35989 ft | 395 kts | 302° |
| 2026-04-22 08:11 | 38.09584 | 22.63507 | 35989 ft | 394 kts | 302° |
| 2026-04-22 08:11 | 38.12699 | 22.57818 | 35987 ft | 394 kts | 302° |
| 2026-04-22 08:12 | 38.15828 | 22.52087 | 35985 ft | 394 kts | 302° |
| 2026-04-22 08:12 | 38.18955 | 22.46357 | 35983 ft | 394 kts | 302° |
| 2026-04-22 08:13 | 38.22077 | 22.40628 | 35985 ft | 394 kts | 302° |
| 2026-04-22 08:13 | 38.25169 | 22.34928 | 35984 ft | 394 kts | 302° |
| 2026-04-22 08:14 | 38.28281 | 22.29181 | 35989 ft | 393 kts | 302° |
| 2026-04-22 08:14 | 38.31387 | 22.23439 | 36014 ft | 393 kts | 302° |
| 2026-04-22 08:15 | 38.34466 | 22.17743 | 36018 ft | 392 kts | 302° |
| 2026-04-22 08:15 | 38.37556 | 22.12019 | 36002 ft | 392 kts | 302° |
| 2026-04-22 08:16 | 38.40648 | 22.06280 | 36006 ft | 392 kts | 302° |
| 2026-04-22 08:16 | 38.43721 | 22.00551 | 35999 ft | 391 kts | 302° |
| 2026-04-22 08:17 | 38.46795 | 21.94814 | 35994 ft | 391 kts | 302° |
| 2026-04-22 08:17 | 38.49352 | 21.90044 | 35998 ft | 391 kts | 302° |
| 2026-04-22 08:18 | 38.52422 | 21.84301 | 35990 ft | 391 kts | 302° |
| 2026-04-22 08:18 | 38.55491 | 21.78551 | 35986 ft | 392 kts | 302° |
| 2026-04-22 08:19 | 38.58565 | 21.72788 | 35986 ft | 393 kts | 302° |
| 2026-04-22 08:19 | 38.61623 | 21.67029 | 35988 ft | 393 kts | 302° |
| 2026-04-22 08:20 | 38.64697 | 21.61227 | 35992 ft | 393 kts | 302° |
| 2026-04-22 08:20 | 38.67751 | 21.55459 | 35993 ft | 393 kts | 302° |
| 2026-04-22 08:21 | 38.70819 | 21.49651 | 36001 ft | 394 kts | 302° |
| 2026-04-22 08:21 | 38.73888 | 21.43841 | 36006 ft | 394 kts | 302° |
| 2026-04-22 08:22 | 38.76938 | 21.38057 | 36004 ft | 394 kts | 302° |
| 2026-04-22 08:22 | 38.80000 | 21.32234 | 36001 ft | 393 kts | 302° |
| 2026-04-22 08:23 | 38.83066 | 21.26403 | 36005 ft | 394 kts | 302° |
| 2026-04-22 08:23 | 38.86128 | 21.20565 | 36009 ft | 394 kts | 302° |
| 2026-04-22 08:24 | 38.89161 | 21.14767 | 36009 ft | 393 kts | 302° |
| 2026-04-22 08:24 | 38.92208 | 21.08933 | 36006 ft | 393 kts | 302° |
| 2026-04-22 08:25 | 38.95252 | 21.03083 | 36012 ft | 393 kts | 302° |
| 2026-04-22 08:25 | 38.98287 | 20.97234 | 36034 ft | 393 kts | 302° |
| 2026-04-22 08:26 | 39.01319 | 20.91394 | 36028 ft | 392 kts | 302° |
| 2026-04-22 08:26 | 39.04334 | 20.85592 | 36020 ft | 392 kts | 302° |
| 2026-04-22 08:27 | 39.07379 | 20.79721 | 36013 ft | 392 kts | 301° |
| 2026-04-22 08:27 | 39.10373 | 20.73922 | 36008 ft | 391 kts | 301° |
| 2026-04-22 08:28 | 39.13384 | 20.68085 | 36000 ft | 390 kts | 301° |
| 2026-04-22 08:28 | 39.16381 | 20.62251 | 35967 ft | 390 kts | 301° |
| 2026-04-22 08:29 | 39.19375 | 20.56416 | 35971 ft | 390 kts | 301° |
| 2026-04-22 08:29 | 39.22376 | 20.50568 | 35968 ft | 390 kts | 301° |
| 2026-04-22 08:30 | 39.25346 | 20.44751 | 35968 ft | 390 kts | 301° |
| 2026-04-22 08:30 | 39.28334 | 20.38894 | 35972 ft | 390 kts | 301° |
| 2026-04-22 08:31 | 39.31308 | 20.33063 | 35973 ft | 390 kts | 301° |
| 2026-04-22 08:32 | 39.35784 | 20.24282 | 35988 ft | 389 kts | 301° |
| 2026-04-22 08:32 | 39.38756 | 20.18427 | 35979 ft | 389 kts | 301° |
| 2026-04-22 08:33 | 39.41712 | 20.12575 | 35958 ft | 389 kts | 301° |
| 2026-04-22 08:33 | 39.44783 | 20.06809 | 35946 ft | 390 kts | 308° |
| 2026-04-22 08:34 | 39.48557 | 20.01789 | 35945 ft | 392 kts | 311° |
| 2026-04-22 08:34 | 39.52382 | 19.96759 | 35951 ft | 392 kts | 311° |
| 2026-04-22 08:35 | 39.56193 | 19.91714 | 35950 ft | 392 kts | 311° |
| 2026-04-22 08:35 | 39.60010 | 19.86663 | 35951 ft | 392 kts | 311° |
| 2026-04-22 08:36 | 39.63823 | 19.81600 | 35977 ft | 392 kts | 311° |
| 2026-04-22 08:36 | 39.67605 | 19.76575 | 35963 ft | 391 kts | 311° |
| 2026-04-22 08:37 | 39.71413 | 19.71507 | 35961 ft | 391 kts | 311° |
| 2026-04-22 08:37 | 39.75213 | 19.66449 | 35959 ft | 391 kts | 311° |
| 2026-04-22 08:38 | 39.79020 | 19.61373 | 35966 ft | 391 kts | 310° |
| 2026-04-22 08:38 | 39.82818 | 19.56296 | 35964 ft | 391 kts | 310° |
| 2026-04-22 08:39 | 39.86582 | 19.51250 | 35969 ft | 391 kts | 310° |
| 2026-04-22 08:39 | 39.90370 | 19.46160 | 36002 ft | 391 kts | 310° |
| 2026-04-22 08:40 | 39.94154 | 19.41067 | 35984 ft | 391 kts | 310° |
| 2026-04-22 08:40 | 39.97942 | 19.35977 | 35991 ft | 391 kts | 310° |
| 2026-04-22 08:41 | 40.01723 | 19.30887 | 35990 ft | 390 kts | 310° |
| 2026-04-22 08:41 | 40.05496 | 19.25792 | 35989 ft | 390 kts | 310° |
| 2026-04-22 08:42 | 40.09277 | 19.20676 | 35997 ft | 390 kts | 310° |
| 2026-04-22 08:42 | 40.13022 | 19.15593 | 35995 ft | 390 kts | 310° |
| 2026-04-22 08:43 | 40.16786 | 19.10471 | 36012 ft | 390 kts | 310° |
| 2026-04-22 08:43 | 40.20550 | 19.05350 | 36021 ft | 390 kts | 310° |
| 2026-04-22 08:44 | 40.24037 | 19.00014 | 36016 ft | 385 kts | 299° |
| 2026-04-22 08:44 | 40.26143 | 18.93607 | 36015 ft | 383 kts | 288° |
| 2026-04-22 08:45 | 40.27846 | 18.86983 | 36012 ft | 383 kts | 288° |
| 2026-04-22 08:45 | 40.29545 | 18.80390 | 36015 ft | 383 kts | 288° |
| 2026-04-22 08:46 | 40.31250 | 18.73772 | 36007 ft | 384 kts | 288° |
| 2026-04-22 08:46 | 40.32959 | 18.67129 | 36014 ft | 384 kts | 288° |
| 2026-04-22 08:47 | 40.34661 | 18.60502 | 36018 ft | 384 kts | 288° |
| 2026-04-22 08:47 | 40.36344 | 18.53910 | 36025 ft | 384 kts | 288° |
| 2026-04-22 08:48 | 40.38029 | 18.47268 | 36025 ft | 384 kts | 288° |
| 2026-04-22 08:48 | 40.39710 | 18.40616 | 36018 ft | 384 kts | 288° |
| 2026-04-22 08:49 | 40.41389 | 18.33956 | 36024 ft | 384 kts | 288° |
| 2026-04-22 08:49 | 40.43073 | 18.27291 | 36028 ft | 384 kts | 288° |
| 2026-04-22 08:50 | 40.44737 | 18.20671 | 36029 ft | 384 kts | 288° |
| 2026-04-22 08:50 | 40.46410 | 18.14005 | 36032 ft | 384 kts | 288° |
| 2026-04-22 08:51 | 40.48079 | 18.07341 | 36037 ft | 384 kts | 288° |
| 2026-04-22 08:51 | 40.49742 | 18.00681 | 36037 ft | 384 kts | 288° |
| 2026-04-22 08:52 | 40.51401 | 17.94014 | 36036 ft | 384 kts | 288° |
| 2026-04-22 08:52 | 40.53053 | 17.87341 | 36036 ft | 384 kts | 288° |
| 2026-04-22 08:53 | 40.54704 | 17.80668 | 36029 ft | 384 kts | 288° |
| 2026-04-22 08:53 | 40.56347 | 17.74026 | 36029 ft | 384 kts | 288° |
| 2026-04-22 08:54 | 40.57999 | 17.67333 | 36034 ft | 384 kts | 288° |
| 2026-04-22 08:54 | 40.59637 | 17.60640 | 36036 ft | 384 kts | 288° |
| 2026-04-22 08:55 | 40.61266 | 17.53948 | 36036 ft | 384 kts | 288° |
| 2026-04-22 08:55 | 40.62892 | 17.47246 | 36039 ft | 384 kts | 288° |
| 2026-04-22 08:56 | 40.64522 | 17.40549 | 36039 ft | 384 kts | 288° |
| 2026-04-22 08:56 | 40.66142 | 17.33887 | 36024 ft | 384 kts | 288° |
| 2026-04-22 08:57 | 40.67765 | 17.27178 | 36058 ft | 384 kts | 288° |
| 2026-04-22 08:57 | 40.69383 | 17.20462 | 36048 ft | 384 kts | 288° |
| 2026-04-22 08:58 | 40.71001 | 17.13742 | 36047 ft | 384 kts | 288° |
| 2026-04-22 08:58 | 40.72616 | 17.07020 | 36045 ft | 384 kts | 288° |
| 2026-04-22 08:59 | 40.74225 | 17.00291 | 36045 ft | 384 kts | 288° |
| 2026-04-22 08:59 | 40.75823 | 16.93598 | 36045 ft | 384 kts | 288° |
| 2026-04-22 09:00 | 40.77414 | 16.86877 | 36030 ft | 383 kts | 288° |
| 2026-04-22 09:00 | 40.79002 | 16.80157 | 36044 ft | 383 kts | 288° |
| 2026-04-22 09:01 | 40.80595 | 16.73444 | 36055 ft | 384 kts | 288° |
| 2026-04-22 09:01 | 40.82172 | 16.66756 | 36050 ft | 383 kts | 288° |
| 2026-04-22 09:02 | 40.83752 | 16.60016 | 36059 ft | 383 kts | 288° |
| 2026-04-22 09:02 | 40.85319 | 16.53337 | 36065 ft | 383 kts | 288° |
| 2026-04-22 09:03 | 40.86891 | 16.46610 | 36065 ft | 383 kts | 288° |
| 2026-04-22 09:03 | 40.88456 | 16.39882 | 36064 ft | 383 kts | 287° |
| 2026-04-22 09:04 | 40.90010 | 16.33182 | 36057 ft | 383 kts | 288° |
| 2026-04-22 09:04 | 40.91568 | 16.26456 | 36056 ft | 382 kts | 288° |
| 2026-04-22 09:05 | 40.93121 | 16.19725 | 36054 ft | 382 kts | 287° |
| 2026-04-22 09:05 | 40.94657 | 16.13026 | 36048 ft | 382 kts | 287° |
| 2026-04-22 09:06 | 40.96080 | 16.06212 | 35269 ft | 387 kts | 284° |
| 2026-04-22 09:06 | 40.96667 | 16.02778 | 34539 ft | 378 kts | 284° |
| 2026-04-22 09:06 | 40.97210 | 15.99371 | 33773 ft | 379 kts | 284° |
| 2026-04-22 09:06 | 40.97748 | 15.95947 | 32932 ft | 380 kts | 284° |
| 2026-04-22 09:07 | 40.98295 | 15.92512 | 32103 ft | 381 kts | 284° |
| 2026-04-22 09:07 | 40.98856 | 15.89073 | 31288 ft | 383 kts | 284° |
| 2026-04-22 09:07 | 40.99432 | 15.85624 | 30410 ft | 385 kts | 284° |
| 2026-04-22 09:07 | 40.99829 | 15.83274 | 29720 ft | 388 kts | 284° |
| 2026-04-22 09:08 | 41.00412 | 15.79829 | 28742 ft | 390 kts | 284° |
| 2026-04-22 09:08 | 41.01002 | 15.76327 | 27804 ft | 390 kts | 284° |
| 2026-04-22 09:08 | 41.01584 | 15.72848 | 27251 ft | 382 kts | 284° |
| 2026-04-22 09:08 | 41.02153 | 15.69431 | 26587 ft | 377 kts | 284° |
| 2026-04-22 09:09 | 41.02717 | 15.66041 | 25870 ft | 376 kts | 284° |
| 2026-04-22 09:09 | 41.03280 | 15.62671 | 25185 ft | 374 kts | 284° |
| 2026-04-22 09:09 | 41.03839 | 15.59318 | 24512 ft | 371 kts | 284° |
| 2026-04-22 09:09 | 41.04393 | 15.55987 | 23842 ft | 368 kts | 284° |
| 2026-04-22 09:10 | 41.04941 | 15.52682 | 23116 ft | 366 kts | 284° |
| 2026-04-22 09:10 | 41.05484 | 15.49410 | 22474 ft | 361 kts | 284° |
| 2026-04-22 09:10 | 41.06022 | 15.46181 | 21860 ft | 357 kts | 284° |
| 2026-04-22 09:10 | 41.06548 | 15.43017 | 21285 ft | 352 kts | 284° |
| 2026-04-22 09:11 | 41.07067 | 15.39863 | 20717 ft | 348 kts | 284° |
| 2026-04-22 09:11 | 41.07578 | 15.36745 | 20169 ft | 345 kts | 284° |
| 2026-04-22 09:11 | 41.08083 | 15.33657 | 19647 ft | 341 kts | 284° |
| 2026-04-22 09:11 | 41.08582 | 15.30604 | 19140 ft | 337 kts | 284° |
| 2026-04-22 09:12 | 41.09078 | 15.27586 | 18648 ft | 334 kts | 284° |
| 2026-04-22 09:12 | 41.09571 | 15.24591 | 18165 ft | 330 kts | 284° |
| 2026-04-22 09:12 | 41.09948 | 15.21599 | 17662 ft | 329 kts | 276° |
| 2026-04-22 09:12 | 41.09832 | 15.18563 | 17187 ft | 331 kts | 264° |
| 2026-04-22 09:13 | 41.09168 | 15.15601 | 16853 ft | 347 kts | 251° |
| 2026-04-22 09:13 | 41.07939 | 15.12791 | 16704 ft | 367 kts | 239° |
| 2026-04-22 09:13 | 41.06277 | 15.10178 | 16506 ft | 371 kts | 235° |
| 2026-04-22 09:13 | 41.04585 | 15.07584 | 16286 ft | 371 kts | 235° |
| 2026-04-22 09:14 | 41.02892 | 15.05001 | 16069 ft | 371 kts | 235° |
| 2026-04-22 09:14 | 41.01200 | 15.02424 | 15861 ft | 370 kts | 235° |
| 2026-04-22 09:14 | 40.99516 | 14.99856 | 15632 ft | 369 kts | 235° |
| 2026-04-22 09:14 | 40.97835 | 14.97290 | 15448 ft | 369 kts | 235° |
| 2026-04-22 09:15 | 40.96158 | 14.94721 | 15227 ft | 368 kts | 235° |
| 2026-04-22 09:15 | 40.94486 | 14.92156 | 15032 ft | 367 kts | 235° |
| 2026-04-22 09:15 | 40.92818 | 14.89604 | 14826 ft | 367 kts | 234° |
| 2026-04-22 09:15 | 40.91151 | 14.87056 | 14622 ft | 366 kts | 234° |
| 2026-04-22 09:16 | 40.89486 | 14.84518 | 14416 ft | 364 kts | 234° |
| 2026-04-22 09:16 | 40.87956 | 14.81960 | 14271 ft | 345 kts | 242° |
| 2026-04-22 09:16 | 40.86717 | 14.79324 | 14152 ft | 331 kts | 243° |
| 2026-04-22 09:16 | 40.85524 | 14.76786 | 14030 ft | 319 kts | 243° |
| 2026-04-22 09:17 | 40.84368 | 14.74340 | 13909 ft | 308 kts | 243° |
| 2026-04-22 09:17 | 40.83252 | 14.71984 | 13787 ft | 298 kts | 243° |
| 2026-04-22 09:17 | 40.82179 | 14.69685 | 13628 ft | 288 kts | 247° |
| 2026-04-22 09:17 | 40.81685 | 14.67280 | 13478 ft | 259 kts | 276° |
| 2026-04-22 09:18 | 40.82164 | 14.65144 | 13250 ft | 242 kts | 303° |
| 2026-04-22 09:18 | 40.83377 | 14.63662 | 13122 ft | 240 kts | 324° |
| 2026-04-22 09:18 | 40.84789 | 14.62496 | 13017 ft | 239 kts | 324° |
| 2026-04-22 09:18 | 40.86201 | 14.61341 | 12878 ft | 239 kts | 324° |
| 2026-04-22 09:19 | 40.87615 | 14.60188 | 12750 ft | 239 kts | 324° |
| 2026-04-22 09:19 | 40.89028 | 14.59034 | 12616 ft | 238 kts | 324° |
| 2026-04-22 09:19 | 40.90437 | 14.57880 | 12484 ft | 238 kts | 324° |
| 2026-04-22 09:19 | 40.91843 | 14.56729 | 12360 ft | 238 kts | 324° |
| 2026-04-22 09:20 | 40.93233 | 14.55591 | 12236 ft | 237 kts | 324° |
| 2026-04-22 09:20 | 40.94638 | 14.54440 | 12109 ft | 237 kts | 324° |
| 2026-04-22 09:20 | 40.96043 | 14.53287 | 11986 ft | 237 kts | 324° |
| 2026-04-22 09:20 | 40.97445 | 14.52137 | 11858 ft | 237 kts | 324° |
| 2026-04-22 09:21 | 40.98845 | 14.50987 | 11732 ft | 237 kts | 324° |
| 2026-04-22 09:21 | 41.00244 | 14.49837 | 11606 ft | 237 kts | 324° |
| 2026-04-22 09:21 | 41.01642 | 14.48687 | 11480 ft | 236 kts | 324° |
| 2026-04-22 09:21 | 41.03036 | 14.47538 | 11360 ft | 236 kts | 324° |
| 2026-04-22 09:22 | 41.04436 | 14.46387 | 11232 ft | 237 kts | 324° |
| 2026-04-22 09:22 | 41.05926 | 14.45452 | 11101 ft | 242 kts | 345° |
| 2026-04-22 09:22 | 41.07624 | 14.45685 | 10986 ft | 257 kts | 19° |
| 2026-04-22 09:22 | 41.09006 | 14.47259 | 10829 ft | 271 kts | 49° |
| 2026-04-22 09:23 | 41.10074 | 14.49338 | 10669 ft | 274 kts | 53° |
| 2026-04-22 09:23 | 41.11076 | 14.51494 | 10529 ft | 275 kts | 54° |
| 2026-04-22 09:23 | 41.12046 | 14.53648 | 10364 ft | 274 kts | 54° |
| 2026-04-22 09:23 | 41.13028 | 14.55816 | 10211 ft | 273 kts | 54° |
| 2026-04-22 09:24 | 41.14015 | 14.57972 | 10044 ft | 273 kts | 54° |
| 2026-04-22 09:24 | 41.15012 | 14.60120 | 9897 ft | 273 kts | 54° |
| 2026-04-22 09:24 | 41.16004 | 14.62264 | 9726 ft | 272 kts | 54° |
| 2026-04-22 09:24 | 41.16989 | 14.64396 | 9574 ft | 270 kts | 55° |
| 2026-04-22 09:25 | 41.17970 | 14.66520 | 9429 ft | 269 kts | 54° |
| 2026-04-22 09:25 | 41.18946 | 14.68636 | 9263 ft | 269 kts | 55° |
| 2026-04-22 09:25 | 41.19909 | 14.70753 | 9115 ft | 268 kts | 59° |
| 2026-04-22 09:25 | 41.20360 | 14.73133 | 8946 ft | 269 kts | 92° |
| 2026-04-22 09:26 | 41.19790 | 14.75441 | 8786 ft | 262 kts | 128° |
| 2026-04-22 09:26 | 41.18475 | 14.76963 | 8622 ft | 250 kts | 152° |
| 2026-04-22 09:26 | 41.17007 | 14.78148 | 8464 ft | 244 kts | 152° |
| 2026-04-22 09:26 | 41.15570 | 14.79278 | 8305 ft | 236 kts | 159° |
| 2026-04-22 09:27 | 41.14032 | 14.79710 | 8158 ft | 220 kts | 188° |
| 2026-04-22 09:27 | 41.12638 | 14.79221 | 8057 ft | 199 kts | 213° |
| 2026-04-22 09:27 | 41.11620 | 14.78120 | 7933 ft | 181 kts | 235° |
| 2026-04-22 09:27 | 41.10965 | 14.76774 | 7819 ft | 167 kts | 242° |
| 2026-04-22 09:28 | 41.10380 | 14.75530 | 7728 ft | 152 kts | 243° |
| 2026-04-22 09:28 | 41.09834 | 14.74373 | 7639 ft | 146 kts | 242° |
| 2026-04-22 09:28 | 41.09292 | 14.73241 | 7555 ft | 145 kts | 242° |
| 2026-04-22 09:28 | 41.08754 | 14.72114 | 7469 ft | 144 kts | 242° |
| 2026-04-22 09:29 | 41.08221 | 14.70983 | 7389 ft | 145 kts | 242° |
| 2026-04-22 09:29 | 41.07689 | 14.69846 | 7298 ft | 145 kts | 242° |
| 2026-04-22 09:29 | 41.07159 | 14.68710 | 7200 ft | 145 kts | 242° |
| 2026-04-22 09:29 | 41.06630 | 14.67575 | 7128 ft | 145 kts | 242° |
| 2026-04-22 09:30 | 41.06108 | 14.66454 | 7072 ft | 145 kts | 242° |
| 2026-04-22 09:30 | 41.05580 | 14.65319 | 6926 ft | 144 kts | 242° |
| 2026-04-22 09:30 | 41.05055 | 14.64192 | 6733 ft | 144 kts | 242° |
| 2026-04-22 09:30 | 41.04534 | 14.63074 | 6521 ft | 142 kts | 243° |
| 2026-04-22 09:31 | 41.04010 | 14.61950 | 6337 ft | 143 kts | 243° |
| 2026-04-22 09:31 | 41.03486 | 14.60826 | 6117 ft | 143 kts | 241° |
| 2026-04-22 09:31 | 41.02966 | 14.59712 | 5898 ft | 144 kts | 241° |
| 2026-04-22 09:31 | 41.02445 | 14.58596 | 5688 ft | 141 kts | 242° |
| 2026-04-22 09:32 | 41.01936 | 14.57504 | 5461 ft | 140 kts | 243° |
| 2026-04-22 09:32 | 41.01417 | 14.56394 | 5261 ft | 143 kts | 241° |
| 2026-04-22 09:32 | 41.00891 | 14.55268 | 5042 ft | 145 kts | 240° |
| 2026-04-22 09:32 | 41.00359 | 14.54128 | 4830 ft | 146 kts | 240° |
| 2026-04-22 09:33 | 40.99819 | 14.52974 | 4606 ft | 149 kts | 239° |
| 2026-04-22 09:33 | 40.99272 | 14.51803 | 4374 ft | 150 kts | 239° |
| 2026-04-22 09:33 | 40.98719 | 14.50623 | 4152 ft | 151 kts | 238° |
| 2026-04-22 09:33 | 40.98156 | 14.49420 | 3920 ft | 156 kts | 238° |
| 2026-04-22 09:34 | 40.97581 | 14.48192 | 3696 ft | 157 kts | 238° |
| 2026-04-22 09:34 | 40.97010 | 14.46973 | 3465 ft | 155 kts | 238° |
| 2026-04-22 09:34 | 40.96436 | 14.45749 | 3218 ft | 160 kts | 237° |
| 2026-04-22 09:35 | 40.95267 | 14.43255 | 2744 ft | 157 kts | 238° |
| 2026-04-22 09:35 | 40.94688 | 14.42021 | 2496 ft | 162 kts | 237° |
| 2026-04-22 09:35 | 40.94094 | 14.40755 | 2258 ft | 163 kts | 238° |
| 2026-04-22 09:35 | 40.93505 | 14.39501 | 2016 ft | 160 kts | 238° |
| 2026-04-22 09:36 | 40.92926 | 14.38269 | 1777 ft | 160 kts | 238° |
| 2026-04-22 09:36 | 40.92343 | 14.37028 | 1562 ft | 157 kts | 239° |
| 2026-04-22 09:36 | 40.91765 | 14.35798 | 1333 ft | 155 kts | 239° |
| 2026-04-22 09:36 | 40.91199 | 14.34595 | 1099 ft | 153 kts | 239° |
| 2026-04-22 09:37 | 40.90641 | 14.33409 | 885 ft | 151 kts | 240° |
| 2026-04-22 09:37 | 40.90088 | 14.32233 | 659 ft | 150 kts | 240° |
| 2026-04-22 09:37 | 40.89551 | 14.31090 | 421 ft | 149 kts | 239° |
| 2026-04-22 09:37 | 40.89007 | 14.29950 | 254 ft | 146 kts | 241° |
| 2026-04-22 09:38 | 40.88561 | 14.29011 | 271 ft | 85 kts | 240° |
| 2026-04-22 09:38 | 40.88322 | 14.28487 | 292 ft | 47 kts | 238° |
| 2026-04-22 09:38 | 40.88163 | 14.28148 | 303 ft | 41 kts | 238° |
| 2026-04-22 09:38 | 40.88081 | 14.28038 | 308 ft | 9 kts | 169° |
| 2026-04-22 09:39 | 40.88032 | 14.28078 | 308 ft | 8 kts | 147° |
| 2026-04-22 09:39 | 40.88008 | 14.28099 | 307 ft | 0 kts | 146° |
| 2026-04-22 09:41 | 40.88005 | 14.28101 | 307 ft | 1 kts | 146° |
| 2026-04-22 09:41 | 40.87998 | 14.28108 | 308 ft | 2 kts | 145° |
| 2026-04-22 09:42 | 40.87985 | 14.28120 | 307 ft | 3 kts | 147° |
| 2026-04-22 09:42 | 40.87967 | 14.28120 | 307 ft | 3 kts | 189° |
| 2026-04-22 09:42 | 40.87948 | 14.28107 | 308 ft | 3 kts | 223° |
| 2026-04-22 09:42 | 40.87943 | 14.28098 | 308 ft | 0 kts | 231° |
| 2026-04-22 09:43 | 40.87942 | 14.28098 | 308 ft | 0 kts | 231° |
| 2026-04-22 09:43 | 40.87924 | 14.28066 | 310 ft | 6 kts | 233° |
| 2026-04-22 09:43 | 40.87908 | 14.28039 | 311 ft | 2 kts | 227° |
| 2026-04-22 09:43 | 40.87905 | 14.28037 | 311 ft | 0 kts | 216° |
| 2026-04-22 09:44 | 40.87903 | 14.28035 | 311 ft | 1 kts | 216° |
| 2026-04-22 09:44 | 40.87893 | 14.28021 | 311 ft | 4 kts | 228° |
| 2026-04-22 09:44 | 40.87868 | 14.27997 | 313 ft | 5 kts | 193° |
| 2026-04-22 09:44 | 40.87841 | 14.28014 | 313 ft | 5 kts | 142° |
| 2026-04-22 09:45 | 40.87814 | 14.28042 | 312 ft | 5 kts | 142° |
| 2026-04-22 09:45 | 40.87811 | 14.28045 | 312 ft | 0 kts | 142° |
| 2026-04-22 09:45 | 40.87811 | 14.28046 | 312 ft | 0 kts | 142° |
| 2026-04-22 09:46 | 40.87811 | 14.28045 | 313 ft | 0 kts | 141° |